.
WxDataArchive / Data Records for 2012-07-30
2012-07-29 July 2012 2012-07-31

Data Records for Monday, 30 July 2012

Time	Temp	Chill	HIndex	Humid	Dewpt	 Wind 	HiWind	WindDir	Rain 	Barom 
-----	----	-----	------	-----	-----	------	------	-------	-----	----- 
00:00	68.1	68.1	68.1	76	60.2	0	0	---	0.00	29.993 
00:05	67.9	67.9	67.9	77	60.4	0	0	---	0.00	29.993 
00:10	67.9	67.9	67.9	77	60.4	0	0	---	0.00	29.993 
00:15	67.8	67.8	67.8	77	60.3	0	0	---	0.00	29.991 
00:20	67.8	67.8	67.8	77	60.3	0	0	---	0.00	29.991 
00:25	67.6	67.6	67.6	78	60.5	0	0	---	0.00	29.991 
00:30	67.6	67.6	67.6	78	60.5	0	0	---	0.00	29.991 
00:35	67.4	67.4	67.4	78	60.3	0	0	---	0.00	29.991 
00:40	67.4	67.4	67.4	79	60.7	0	0	---	0.00	29.991 
00:45	67.3	67.3	67.3	79	60.6	0	0	---	0.00	29.995 
00:50	67.3	67.3	67.3	80	60.9	0	0	---	0.00	29.995 
00:55	67.3	67.3	67.3	81	61.3	0	1	90	0.00	29.995 
01:00	67.4	67.4	67.4	81	61.4	0	1	---	0.00	29.995 
01:05	67.4	67.4	67.4	81	61.4	0	0	---	0.00	29.995 
01:10	67.6	67.6	67.6	81	61.6	0	0	---	0.00	29.995 
01:15	67.6	67.6	67.6	81	61.6	0	0	---	0.00	29.993 
01:20	67.6	67.6	67.6	81	61.6	0	0	---	0.00	29.993 
01:25	67.6	67.6	67.6	80	61.2	0	0	---	0.00	29.993 
01:30	67.6	67.6	67.6	80	61.2	0	0	---	0.00	29.988 
01:35	67.4	67.4	67.4	79	60.7	0	0	---	0.00	29.988 
01:40	67.6	67.6	67.6	79	60.8	0	0	---	0.00	29.988 
01:45	67.6	67.6	67.6	79	60.8	0	0	---	0.00	29.984 
01:50	67.6	67.6	67.6	80	61.2	0	0	---	0.00	29.984 
01:55	67.6	67.6	67.6	79	60.8	0	0	---	0.00	29.984 
02:00	67.6	67.6	67.6	77	60.1	0	0	---	0.00	29.978 
02:05	67.9	67.9	67.9	76	60.0	0	0	---	0.00	29.978 
02:10	68.3	68.3	68.3	76	60.4	0	0	---	0.00	29.978 
02:15	68.4	68.4	68.4	76	60.5	0	0	---	0.00	29.978 
02:20	68.6	68.6	68.6	76	60.7	0	0	---	0.00	29.978 
02:25	68.6	68.6	68.6	75	60.3	0	0	---	0.00	29.978 
02:30	68.8	68.8	68.8	75	60.5	0	0	---	0.00	29.975 
02:35	68.8	68.8	68.8	75	60.5	0	1	90	0.00	29.975 
02:40	68.9	68.9	68.9	75	60.6	0	0	---	0.00	29.975 
02:45	68.9	68.9	68.9	75	60.6	0	0	---	0.00	29.967 
02:50	68.9	68.9	68.9	75	60.6	0	0	---	0.00	29.967 
02:55	68.9	68.9	68.9	76	61.0	0	0	---	0.00	29.967 
03:00	68.9	68.9	68.9	76	61.0	0	0	---	0.00	29.964 
03:05	68.8	68.8	68.8	76	60.9	0	0	---	0.00	29.964 
03:10	68.8	68.8	68.8	77	61.3	0	0	---	0.00	29.964 
03:15	68.8	68.8	68.8	77	61.3	0	0	---	0.00	29.959 
03:20	68.8	68.8	68.8	77	61.3	0	0	---	0.00	29.959 
03:25	68.8	68.8	68.8	77	61.3	0	0	---	0.00	29.959 
03:30	68.8	68.8	68.8	77	61.3	0	0	---	0.00	29.959 
03:35	68.8	68.8	68.8	77	61.3	0	0	---	0.00	29.959 
03:40	68.9	68.9	68.9	77	61.4	0	0	---	0.00	29.959 
03:45	68.9	68.9	68.9	77	61.4	0	0	---	0.00	29.957 
03:50	68.9	68.9	68.9	77	61.4	0	0	---	0.00	29.957 
03:55	68.9	68.9	68.9	77	61.4	0	0	---	0.00	29.957 
04:00	68.9	68.9	68.9	78	61.7	0	0	---	0.00	29.956 
04:05	68.9	68.9	68.9	78	61.7	0	1	90	0.00	29.956 
04:10	68.9	68.9	68.9	78	61.7	0	1	90	0.00	29.956 
04:15	68.8	68.8	68.8	78	61.7	0	0	---	0.00	29.953 
04:20	68.8	68.8	68.8	78	61.7	0	0	---	0.00	29.953 
04:25	68.8	68.8	68.8	78	61.7	0	0	---	0.00	29.953 
04:30	68.8	68.8	68.8	79	62.0	0	0	---	0.00	29.949 
04:35	68.9	68.9	68.9	79	62.1	0	0	---	0.00	29.949 
04:40	68.8	68.8	68.8	79	62.0	0	0	---	0.00	29.949 
04:45	68.8	68.8	68.8	80	62.4	0	0	---	0.00	29.953 
04:50	68.8	68.8	68.8	80	62.4	0	0	---	0.00	29.953 
04:55	68.6	68.6	68.6	80	62.2	0	0	---	0.00	29.953 
05:00	68.6	68.6	68.6	80	62.2	0	0	---	0.00	29.953 
05:05	68.8	68.8	68.8	81	62.7	0	0	---	0.00	29.953 
05:10	68.6	68.6	68.6	81	62.5	0	0	---	0.00	29.953 
05:15	68.8	68.8	68.8	81	62.7	0	1	90	0.00	29.953 
05:20	68.8	68.8	68.8	81	62.7	0	0	---	0.00	29.953 
05:25	68.6	68.6	68.6	81	62.5	0	0	---	0.00	29.953 
05:30	68.6	68.6	68.6	81	62.5	0	0	---	0.00	29.949 
05:35	68.6	68.6	68.6	81	62.5	0	0	---	0.00	29.949 
05:40	68.6	68.6	68.6	81	62.5	0	0	---	0.00	29.949 
05:45	68.4	68.4	68.4	82	62.7	0	0	---	0.00	29.953 
05:50	68.4	68.4	68.4	82	62.7	0	0	---	0.00	29.953 
05:55	68.4	68.4	68.4	82	62.7	0	0	---	0.00	29.953 
06:00	68.3	68.3	68.3	82	62.6	0	0	---	0.00	29.955 
06:05	68.3	68.3	68.3	83	62.9	0	0	---	0.00	29.955 
06:10	68.3	68.3	68.3	83	62.9	0	0	---	0.00	29.955 
06:15	68.3	68.3	68.3	83	62.9	0	0	---	0.00	29.958 
06:20	68.3	68.3	68.3	83	62.9	0	0	---	0.00	29.958 
06:25	68.3	68.3	68.3	83	62.9	0	0	---	0.00	29.958 
06:30	68.1	68.1	68.1	83	62.7	0	1	90	0.00	29.956 
06:35	68.1	68.1	68.1	83	62.7	0	0	---	0.00	29.956 
06:40	68.1	68.1	68.1	83	62.7	0	0	---	0.00	29.956 
06:45	68.1	68.1	68.1	83	62.7	0	0	---	0.00	29.956 
06:50	68.1	68.1	68.1	83	62.7	0	0	---	0.00	29.956 
06:55	68.1	68.1	68.1	83	62.7	0	0	---	0.00	29.956 
07:00	68.1	68.1	68.1	83	62.7	0	0	---	0.00	29.962 
07:05	68.1	68.1	68.1	84	63.1	0	0	---	0.00	29.962 
07:10	68.3	68.3	68.3	83	62.9	0	0	---	0.00	29.962 
07:15	68.3	68.3	68.3	83	62.9	0	0	---	0.00	29.966 
07:20	68.4	68.4	68.4	83	63.0	0	0	---	0.00	29.966 
07:25	68.4	68.4	68.4	83	63.0	0	0	---	0.00	29.966 
07:30	68.6	68.6	68.6	83	63.2	0	0	---	0.00	29.974 
07:35	68.8	68.8	68.8	84	63.8	0	0	---	0.00	29.974 
07:40	68.9	68.9	68.9	84	63.9	0	0	---	0.00	29.974 
07:45	69.1	69.1	69.1	83	63.7	0	0	---	0.00	29.976 
07:50	69.3	69.3	69.3	83	63.9	0	0	---	0.00	29.976 
07:55	69.4	69.4	69.4	84	64.3	0	0	---	0.00	29.976 
08:00	69.4	69.4	69.4	83	64.0	0	0	---	0.00	29.978 
08:05	69.6	69.6	69.6	83	64.2	0	0	---	0.00	29.978 
08:10	69.8	69.8	69.8	82	64.0	0	0	---	0.00	29.978 
08:15	69.8	69.8	69.8	82	64.0	0	0	---	0.00	29.982 
08:20	69.9	69.9	69.9	81	63.8	0	1	90	0.00	29.982 
08:25	70.3	70.3	70.3	82	64.5	0	0	---	0.00	29.982 
08:30	70.4	70.4	70.4	81	64.3	0	1	90	0.00	29.982 
08:35	70.8	70.8	70.8	80	64.3	0	1	90	0.00	29.982 
08:40	70.9	70.9	70.9	78	63.7	0	1	90	0.00	29.982 
08:45	71.5	71.5	71.5	78	64.3	0	0	---	0.00	29.984 
08:50	71.8	71.8	71.8	77	64.2	0	1	90	0.00	29.984 
08:55	72.0	72.0	72.0	77	64.4	0	0	---	0.00	29.984 
09:00	72.3	72.3	72.3	77	64.7	0	0	---	0.00	29.985 
09:05	72.5	72.5	72.5	77	64.9	0	0	---	0.00	29.985 
09:10	72.7	72.7	72.7	76	64.7	0	0	---	0.00	29.985 
09:15	73.2	73.2	73.2	74	64.4	0	1	90	0.00	29.987 
09:20	74.0	74.0	74.0	73	64.8	0	1	90	0.00	29.987 
09:25	75.3	75.3	77.0	69	64.4	0	2	90	0.00	29.987 
09:30	76.1	76.1	77.8	68	64.8	0	3	90	0.00	29.985 
09:35	76.8	76.8	78.6	67	65.0	0	3	90	0.00	29.985 
09:40	77.2	77.2	79.0	66	64.9	0	2	90	0.00	29.985 
09:45	77.6	77.6	79.4	64	64.4	0	2	90	0.00	29.984 
09:50	78.3	78.3	80.1	62	64.2	0	1	90	0.00	29.984 
09:55	78.8	78.8	80.5	61	64.2	1	2	90	0.00	29.984 
10:00	78.8	78.8	80.6	62	64.7	0	2	90	0.00	29.982 
10:05	79.8	79.8	81.4	58	63.7	0	1	90	0.00	29.982 
10:10	80.3	80.3	81.9	58	64.2	0	2	90	0.00	29.982 
10:15	80.3	80.3	81.7	56	63.1	0	2	90	0.00	29.985 
10:20	80.1	80.1	81.4	55	62.4	0	2	90	0.00	29.985 
10:25	79.6	79.6	81.0	56	62.5	0	2	90	0.00	29.985 
10:30	79.8	79.8	81.4	58	63.7	0	2	90	0.00	29.988 
10:35	79.9	79.9	81.3	56	62.8	0	2	90	0.00	29.988 
10:40	79.8	79.8	81.2	56	62.7	0	1	90	0.00	29.988 
10:45	79.2	79.2	80.6	56	62.1	0	1	90	0.00	29.986 
10:50	79.2	79.2	80.7	58	63.1	0	1	90	0.00	29.986 
10:55	79.2	79.2	80.6	56	62.1	0	2	90	0.00	29.986 
11:00	79.2	79.2	80.6	56	62.1	0	2	90	0.00	29.985 
11:05	79.2	79.2	80.7	57	62.6	0	1	90	0.00	29.985 
11:10	79.2	79.2	80.6	56	62.1	0	1	90	0.00	29.985 
11:15	79.2	79.2	80.6	56	62.1	0	1	90	0.00	29.991 
11:20	78.8	78.8	80.1	55	61.2	1	3	90	0.00	29.991 
11:25	78.8	78.8	80.1	55	61.2	1	3	90	0.00	29.991 
11:30	79.0	79.0	80.4	56	61.9	0	1	90	0.00	29.988 
11:35	79.6	79.6	80.9	55	62.0	1	3	90	0.00	29.988 
11:40	80.3	80.3	81.3	52	61.0	1	3	315	0.00	29.988 
11:45	80.7	80.7	81.4	50	60.3	1	3	315	0.00	29.984 
11:50	80.9	80.9	81.8	51	61.0	1	2	315	0.00	29.984 
11:55	81.4	81.4	82.1	50	60.9	0	2	315	0.00	29.984 
12:00	81.8	81.8	82.6	50	61.3	1	3	315	0.00	29.980 
12:05	82.0	82.0	82.6	49	60.9	2	3	315	0.00	29.980 
12:10	82.4	82.4	83.0	49	61.3	2	4	292	0.00	29.980 
12:15	82.8	82.8	83.3	48	61.1	1	4	292	0.00	29.977 
12:20	83.0	83.0	83.5	48	61.3	1	3	292	0.00	29.977 
12:25	83.4	83.4	84.0	48	61.6	2	3	292	0.00	29.977 
12:30	83.8	83.8	84.1	46	60.8	1	3	292	0.00	29.969 
12:35	84.3	84.3	84.7	46	61.2	1	3	292	0.00	29.969 
12:40	84.7	84.7	85.6	48	62.8	1	3	292	0.00	29.969 
12:45	85.5	85.5	86.2	46	62.3	1	3	292	0.00	29.963 
12:50	86.1	86.1	86.5	44	61.6	1	3	90	0.00	29.963 
12:55	85.7	85.7	86.0	44	61.2	1	3	90	0.00	29.963 
13:00	85.7	85.7	85.7	43	60.6	2	4	338	0.00	29.961 
13:05	85.9	85.9	86.0	43	60.8	1	3	315	0.00	29.961 
13:10	86.3	86.3	86.0	41	59.8	1	3	315	0.00	29.961 
13:15	87.0	87.0	86.6	40	59.7	0	3	315	0.00	29.953 
13:20	87.4	87.4	87.1	40	60.1	1	3	112	0.00	29.953 
13:25	87.8	87.8	87.9	41	61.1	0	2	112	0.00	29.953 
13:30	87.8	87.8	87.6	40	60.4	1	4	112	0.00	29.946 
13:35	88.0	88.0	87.9	40	60.6	1	3	90	0.00	29.946 
13:40	88.4	88.4	88.2	39	60.3	1	4	90	0.00	29.946 
13:45	88.2	88.2	87.9	39	60.1	1	4	90	0.00	29.942 
13:50	88.4	88.4	87.9	38	59.5	1	4	112	0.00	29.942 
13:55	88.8	88.8	88.1	37	59.1	1	5	270	0.00	29.942 
14:00	88.8	88.8	88.7	39	60.6	1	3	225	0.00	29.939 
14:05	88.8	88.8	87.9	36	58.4	1	3	225	0.00	29.939 
14:10	88.6	88.6	87.4	35	57.4	2	4	225	0.00	29.939 
14:15	88.6	88.6	87.6	36	58.2	1	3	90	0.00	29.929 
14:20	88.2	88.2	87.4	37	58.6	1	3	90	0.00	29.929 
14:25	88.0	88.0	87.9	40	60.6	1	3	270	0.00	29.929 
14:30	88.2	88.2	87.6	38	59.3	1	5	90	0.00	29.927 
14:35	88.4	88.4	88.2	39	60.3	0	2	90	0.00	29.927 
14:40	89.0	89.0	88.7	38	60.1	1	3	90	0.00	29.927 
14:45	89.3	89.3	88.5	36	58.8	1	3	292	0.00	29.925 
14:50	89.5	89.5	88.5	35	58.2	1	2	315	0.00	29.925 
14:55	88.8	88.8	88.1	37	59.1	1	4	270	0.00	29.925 
15:00	88.0	88.0	87.4	38	59.2	1	4	270	0.00	29.926 
15:05	87.8	87.8	87.4	39	59.7	1	4	90	0.00	29.926 
15:10	88.0	88.0	87.9	40	60.6	1	3	90	0.00	29.926 
15:15	88.8	88.8	88.7	39	60.6	2	4	68	0.00	29.918 
15:20	89.5	89.5	89.3	38	60.5	1	3	248	0.00	29.918 
15:25	90.1	90.1	89.9	37	60.3	1	6	112	0.00	29.918 
15:30	89.9	89.9	89.3	36	59.3	2	6	90	0.00	29.920 
15:35	89.5	89.5	88.8	36	59.0	1	4	270	0.00	29.920 
15:40	88.6	88.6	87.9	37	59.0	1	4	270	0.00	29.920 
15:45	88.6	88.6	88.4	39	60.4	0	2	270	0.00	29.911 
15:50	89.0	89.0	89.0	39	60.8	1	3	270	0.00	29.911 
15:55	89.7	89.7	89.0	36	59.2	1	4	292	0.00	29.911 
16:00	90.1	90.1	89.9	37	60.3	1	3	112	0.00	29.909 
16:05	89.9	89.9	89.6	37	60.1	0	3	112	0.00	29.909 
16:10	89.7	89.7	89.0	36	59.2	0	3	112	0.00	29.909 
16:15	89.7	89.7	89.3	37	59.9	1	3	90	0.00	29.912 
16:20	89.3	89.3	88.8	37	59.6	0	0	---	0.00	29.912 
16:25	89.0	89.0	88.4	37	59.3	1	4	45	0.00	29.912 
16:30	89.0	89.0	88.7	38	60.1	1	6	90	0.00	29.912 
16:35	88.6	88.6	88.4	39	60.4	0	3	90	0.00	29.912 
16:40	88.6	88.6	87.9	37	59.0	1	5	90	0.00	29.912 
16:45	88.8	88.8	88.7	39	60.6	1	2	270	0.00	29.909 
16:50	88.4	88.4	87.6	37	58.8	1	3	68	0.00	29.909 
16:55	88.4	88.4	88.7	41	61.7	1	5	292	0.00	29.909 
17:00	88.8	88.8	88.1	37	59.1	0	1	90	0.00	29.907 
17:05	88.8	88.8	88.1	37	59.1	0	2	90	0.00	29.907 
17:10	88.8	88.8	87.9	36	58.4	2	5	90	0.00	29.907 
17:15	88.6	88.6	88.2	38	59.7	1	3	90	0.00	29.900 
17:20	88.8	88.8	88.1	37	59.1	1	3	90	0.00	29.900 
17:25	89.0	89.0	87.9	35	57.7	1	4	90	0.00	29.900 
17:30	89.0	89.0	87.9	35	57.7	1	4	112	0.00	29.895 
17:35	89.0	89.0	87.9	35	57.7	1	2	112	0.00	29.895 
17:40	88.8	88.8	87.6	35	57.6	1	4	112	0.00	29.895 
17:45	89.0	89.0	88.1	36	58.5	0	1	112	0.00	29.895 
17:50	89.0	89.0	87.9	35	57.7	0	2	112	0.00	29.895 
17:55	88.6	88.6	87.2	34	56.6	1	3	112	0.00	29.895 
18:00	88.4	88.4	87.2	35	57.2	1	3	338	0.00	29.895 
18:05	88.0	88.0	86.5	34	56.1	1	4	315	0.00	29.895 
18:10	88.0	88.0	86.5	34	56.1	0	2	112	0.00	29.895 
18:15	87.8	87.8	86.5	35	56.7	0	3	225	0.00	29.895 
18:20	87.6	87.6	86.2	35	56.5	0	2	158	0.00	29.895 
18:25	87.2	87.2	85.8	35	56.2	0	2	158	0.00	29.895 
18:30	87.0	87.0	85.8	36	56.8	0	1	270	0.00	29.897 
18:35	87.2	87.2	86.0	36	57.0	0	1	270	0.00	29.897 
18:40	87.0	87.0	85.8	36	56.8	0	1	270	0.00	29.897 
18:45	86.7	86.7	85.8	38	58.0	1	3	270	0.00	29.897 
18:50	86.3	86.3	85.6	39	58.4	0	1	270	0.00	29.897 
18:55	86.1	86.1	85.4	39	58.2	0	1	270	0.00	29.897 
19:00	85.7	85.7	85.1	40	58.6	0	4	270	0.00	29.897 
19:05	85.5	85.5	84.9	40	58.4	0	1	45	0.00	29.897 
19:10	85.5	85.5	84.9	40	58.4	1	3	45	0.00	29.897 
19:15	85.5	85.5	85.1	41	59.1	0	2	45	0.00	29.896 
19:20	85.5	85.5	85.5	43	60.4	0	2	45	0.00	29.896 
19:25	85.5	85.5	85.5	43	60.4	1	2	45	0.00	29.896 
19:30	85.5	85.5	85.3	42	59.8	0	1	45	0.00	29.896 
19:35	85.3	85.3	84.8	41	58.9	0	2	22	0.00	29.896 
19:40	85.3	85.3	85.0	42	59.6	0	1	22	0.00	29.896 
19:45	85.3	85.3	85.0	42	59.6	0	1	22	0.00	29.897 
19:50	85.3	85.3	85.2	43	60.2	0	1	22	0.00	29.897 
19:55	85.3	85.3	85.7	45	61.5	0	1	22	0.00	29.897 
20:00	85.1	85.1	85.7	46	62.0	0	1	22	0.00	29.896 
20:05	84.9	84.9	85.4	46	61.8	0	1	22	0.00	29.896 
20:10	84.5	84.5	85.1	47	62.0	0	1	22	0.00	29.896 
20:15	84.3	84.3	84.9	47	61.8	0	1	22	0.00	29.894 
20:20	84.1	84.1	84.8	48	62.3	0	1	22	0.00	29.894 
20:25	83.8	83.8	84.5	48	62.0	0	0	---	0.00	29.894 
20:30	83.6	83.6	84.4	49	62.4	0	1	22	0.00	29.894 
20:35	83.4	83.4	84.2	49	62.2	0	0	---	0.00	29.894 
20:40	83.2	83.2	84.1	50	62.6	0	0	---	0.00	29.894 
20:45	82.8	82.8	83.7	50	62.2	0	0	---	0.00	29.895 
20:50	82.4	82.4	83.2	50	61.9	0	0	---	0.00	29.895 
20:55	82.2	82.2	83.1	51	62.2	0	0	---	0.00	29.895 
21:00	81.8	81.8	82.8	52	62.4	0	0	---	0.00	29.894 
21:05	81.6	81.6	82.8	53	62.8	0	0	---	0.00	29.894 
21:10	81.2	81.2	82.5	54	62.9	0	0	---	0.00	29.894 
21:15	80.9	80.9	82.1	54	62.7	0	0	---	0.00	29.886 
21:20	80.7	80.7	81.9	54	62.5	0	0	---	0.00	29.886 
21:25	80.3	80.3	81.6	55	62.6	0	0	---	0.00	29.886 
21:30	80.1	80.1	81.4	55	62.4	0	0	---	0.00	29.887 
21:35	79.9	79.9	81.3	56	62.8	0	0	---	0.00	29.887 
21:40	79.8	79.8	81.2	56	62.7	0	0	---	0.00	29.887 
21:45	79.6	79.6	81.1	57	63.0	0	0	---	0.00	29.892 
21:50	79.4	79.4	80.9	57	62.8	0	0	---	0.00	29.892 
21:55	79.2	79.2	80.7	57	62.6	0	0	---	0.00	29.892 
22:00	79.0	79.0	80.5	58	62.9	0	0	---	0.00	29.894 
22:05	78.8	78.8	80.3	58	62.8	0	0	---	0.00	29.894 
22:10	78.6	78.6	80.2	59	63.1	0	0	---	0.00	29.894 
22:15	78.3	78.3	79.9	59	62.8	0	0	---	0.00	29.898 
22:20	78.1	78.1	79.8	60	63.1	0	0	---	0.00	29.898 
22:25	77.7	77.7	79.4	60	62.7	0	0	---	0.00	29.898 
22:30	77.6	77.6	79.3	61	63.1	0	0	---	0.00	29.898 
22:35	77.2	77.2	79.0	62	63.2	0	0	---	0.00	29.898 
22:40	76.8	76.8	78.6	62	62.8	0	0	---	0.00	29.898 
22:45	76.7	76.7	78.5	63	63.1	0	0	---	0.00	29.900 
22:50	76.5	76.5	78.3	64	63.4	0	0	---	0.00	29.900 
22:55	76.1	76.1	78.0	65	63.5	0	0	---	0.00	29.900 
23:00	76.0	76.0	77.8	66	63.8	0	0	---	0.00	29.901 
23:05	75.6	75.6	77.5	66	63.4	0	0	---	0.00	29.901 
23:10	75.4	75.4	77.3	66	63.2	0	0	---	0.00	29.901 
23:15	75.3	75.3	77.2	67	63.6	0	0	---	0.00	29.897 
23:20	75.1	75.1	77.0	67	63.4	0	0	---	0.00	29.897 
23:25	74.9	74.9	74.9	68	63.6	0	0	---	0.00	29.897 
23:30	74.9	74.9	74.9	69	64.0	0	0	---	0.00	29.898 
23:35	74.7	74.7	74.7	69	63.8	0	0	---	0.00	29.898 
23:40	74.6	74.6	74.6	69	63.7	0	0	---	0.00	29.898 
23:45	74.4	74.4	74.4	70	64.0	0	0	---	0.00	29.898 
23:50	74.0	74.0	74.0	71	64.0	0	0	---	0.00	29.898 
23:55	73.9	73.9	73.9	71	63.9	0	0	---	0.00	29.898 

CoCoRaHS
IN-AL-39
A2 Web Hosting
Creative Commons License
GoDaddy
search engine by freefind advanced

loaded 2018-11-22 05:48:08 • last modified 2010-11-18 10:43:29
Privacy PolicyDisclaimer
• wx.awcolley.com is powered by PmWiki v.2002016 •
• all content (unless otherwise noted) © 2018 A W Colley